sensor_id;sensor_type;location;lat;lon;timestamp;pressure;altitude;pressure_sealevel;temperature;humidity
64713;BME280;51140;45.340;5.980;2022-08-27T00:00:27;97312.19;;;19.69;100.00
64713;BME280;51140;45.340;5.980;2022-08-27T00:02:53;97309.38;;;19.71;100.00
64713;BME280;51140;45.340;5.980;2022-08-27T00:05:19;97300.13;;;19.67;100.00
64713;BME280;51140;45.340;5.980;2022-08-27T00:07:45;97301.09;;;19.66;100.00
64713;BME280;51140;45.340;5.980;2022-08-27T00:10:16;97301.09;;;19.66;100.00
64713;BME280;51140;45.340;5.980;2022-08-27T00:12:42;97307.06;;;19.68;100.00
64713;BME280;51140;45.340;5.980;2022-08-27T00:15:09;97303.59;;;19.67;100.00
64713;BME280;51140;45.340;5.980;2022-08-27T00:17:35;97311.16;;;19.62;100.00
64713;BME280;51140;45.340;5.980;2022-08-27T00:20:03;97303.81;;;19.56;100.00
64713;BME280;51140;45.340;5.980;2022-08-27T00:22:28;97298.69;;;19.55;100.00
64713;BME280;51140;45.340;5.980;2022-08-27T00:24:54;97294.41;;;19.54;100.00
64713;BME280;51140;45.340;5.980;2022-08-27T00:27:19;97286.75;;;19.51;100.00
64713;BME280;51140;45.340;5.980;2022-08-27T00:29:45;97289.72;;;19.48;100.00
64713;BME280;51140;45.340;5.980;2022-08-27T00:32:11;97280.13;;;19.47;100.00
64713;BME280;51140;45.340;5.980;2022-08-27T00:34:37;97281.28;;;19.44;100.00
64713;BME280;51140;45.340;5.980;2022-08-27T00:37:02;97278.47;;;19.46;100.00
64713;BME280;51140;45.340;5.980;2022-08-27T00:39:28;97282.63;;;19.48;100.00
64713;BME280;51140;45.340;5.980;2022-08-27T00:41:54;97286.09;;;19.49;100.00
64713;BME280;51140;45.340;5.980;2022-08-27T00:44:19;97285.72;;;19.44;100.00
64713;BME280;51140;45.340;5.980;2022-08-27T00:46:47;97290.69;;;19.47;100.00
64713;BME280;51140;45.340;5.980;2022-08-27T00:52:04;97290.22;;;19.51;100.00
64713;BME280;51140;45.340;5.980;2022-08-27T00:54:30;97286.56;;;19.44;100.00
64713;BME280;51140;45.340;5.980;2022-08-27T00:56:57;97288.38;;;19.44;100.00
64713;BME280;51140;45.340;5.980;2022-08-27T00:59:25;97283.56;;;19.39;100.00
64713;BME280;51140;45.340;5.980;2022-08-27T01:01:53;97277.75;;;19.35;100.00
64713;BME280;51140;45.340;5.980;2022-08-27T01:04:40;97278.53;;;19.28;100.00
64713;BME280;51140;45.340;5.980;2022-08-27T01:07:06;97274.75;;;19.30;100.00
64713;BME280;51140;45.340;5.980;2022-08-27T01:09:34;97276.41;;;19.31;100.00
64713;BME280;51140;45.340;5.980;2022-08-27T01:12:00;97266.31;;;19.27;100.00
64713;BME280;51140;45.340;5.980;2022-08-27T01:14:26;97275.22;;;19.26;100.00
64713;BME280;51140;45.340;5.980;2022-08-27T01:16:54;97264.56;;;19.18;100.00
64713;BME280;51140;45.340;5.980;2022-08-27T01:22:14;97257.59;;;19.08;100.00
64713;BME280;51140;45.340;5.980;2022-08-27T01:24:45;97258.22;;;19.02;100.00
64713;BME280;51140;45.340;5.980;2022-08-27T01:27:16;97252.41;;;18.99;100.00
64713;BME280;51140;45.340;5.980;2022-08-27T01:29:43;97255.34;;;18.96;100.00
64713;BME280;51140;45.340;5.980;2022-08-27T01:32:22;97241.78;;;18.91;100.00
64713;BME280;51140;45.340;5.980;2022-08-27T01:34:48;97229.59;;;18.90;100.00
64713;BME280;51140;45.340;5.980;2022-08-27T01:37:14;97231.56;;;18.88;100.00
64713;BME280;51140;45.340;5.980;2022-08-27T01:39:41;97227.72;;;18.82;100.00
64713;BME280;51140;45.340;5.980;2022-08-27T01:44:49;97222.19;;;18.75;100.00
64713;BME280;51140;45.340;5.980;2022-08-27T01:47:18;97212.94;;;18.71;100.00
64713;BME280;51140;45.340;5.980;2022-08-27T01:49:44;97213.91;;;18.70;100.00
64713;BME280;51140;45.340;5.980;2022-08-27T01:52:10;97214.38;;;18.66;100.00
64713;BME280;51140;45.340;5.980;2022-08-27T01:54:36;97204.94;;;18.63;100.00
64713;BME280;51140;45.340;5.980;2022-08-27T01:57:01;97202.84;;;18.67;100.00
64713;BME280;51140;45.340;5.980;2022-08-27T01:59:27;97197.25;;;18.70;100.00
64713;BME280;51140;45.340;5.980;2022-08-27T02:01:53;97196.44;;;18.69;100.00
64713;BME280;51140;45.340;5.980;2022-08-27T02:04:19;97190.16;;;18.70;100.00
64713;BME280;51140;45.340;5.980;2022-08-27T02:06:44;97182.56;;;18.67;100.00
64713;BME280;51140;45.340;5.980;2022-08-27T02:09:11;97176.91;;;18.62;100.00
64713;BME280;51140;45.340;5.980;2022-08-27T02:11:36;97178.72;;;18.62;100.00
64713;BME280;51140;45.340;5.980;2022-08-27T02:14:01;97169.13;;;18.61;100.00
64713;BME280;51140;45.340;5.980;2022-08-27T02:16:27;97161.22;;;18.61;100.00
64713;BME280;51140;45.340;5.980;2022-08-27T02:18:52;97162.03;;;18.61;100.00
64713;BME280;51140;45.340;5.980;2022-08-27T02:21:19;97160.38;;;18.60;100.00
64713;BME280;51140;45.340;5.980;2022-08-27T02:23:44;97147.00;;;18.54;100.00
64713;BME280;51140;45.340;5.980;2022-08-27T02:26:10;97147.28;;;18.51;100.00
64713;BME280;51140;45.340;5.980;2022-08-27T02:28:35;97149.09;;;18.50;100.00
64713;BME280;51140;45.340;5.980;2022-08-27T02:31:01;97150.75;;;18.51;100.00
64713;BME280;51140;45.340;5.980;2022-08-27T02:33:26;97147.00;;;18.54;100.00
64713;BME280;51140;45.340;5.980;2022-08-27T02:35:52;97152.25;;;18.54;100.00
64713;BME280;51140;45.340;5.980;2022-08-27T02:38:17;97145.34;;;18.53;100.00
64713;BME280;51140;45.340;5.980;2022-08-27T02:40:44;97139.22;;;18.52;100.00
64713;BME280;51140;45.340;5.980;2022-08-27T02:43:09;97144.66;;;18.51;100.00
64713;BME280;51140;45.340;5.980;2022-08-27T02:45:35;97143.84;;;18.50;100.00
64713;BME280;51140;45.340;5.980;2022-08-27T02:48:02;97144.66;;;18.51;100.00
64713;BME280;51140;45.340;5.980;2022-08-27T02:50:28;97144.00;;;18.48;100.00
64713;BME280;51140;45.340;5.980;2022-08-27T02:52:54;97138.88;;;18.47;100.00
64713;BME280;51140;45.340;5.980;2022-08-27T02:55:19;97143.47;;;18.45;100.00
64713;BME280;51140;45.340;5.980;2022-08-27T02:57:45;97141.13;;;18.42;100.00
64713;BME280;51140;45.340;5.980;2022-08-27T03:00:13;97137.38;;;18.44;100.00
64713;BME280;51140;45.340;5.980;2022-08-27T03:02:39;97137.88;;;18.48;100.00
64713;BME280;51140;45.340;5.980;2022-08-27T03:05:05;97145.50;;;18.51;100.00
64713;BME280;51140;45.340;5.980;2022-08-27T03:07:31;97153.41;;;18.51;100.00
64713;BME280;51140;45.340;5.980;2022-08-27T03:09:56;97154.38;;;18.50;100.00
64713;BME280;51140;45.340;5.980;2022-08-27T03:12:21;97141.50;;;18.47;100.00
64713;BME280;51140;45.340;5.980;2022-08-27T03:14:48;97152.06;;;18.47;100.00
64713;BME280;51140;45.340;5.980;2022-08-27T03:17:14;97144.44;;;18.44;100.00
64713;BME280;51140;45.340;5.980;2022-08-27T03:19:57;97138.63;;;18.40;100.00
64713;BME280;51140;45.340;5.980;2022-08-27T03:22:23;97146.00;;;18.37;100.00
64713;BME280;51140;45.340;5.980;2022-08-27T03:24:48;97130.81;;;18.31;100.00
64713;BME280;51140;45.340;5.980;2022-08-27T03:27:13;97117.94;;;18.28;100.00
64713;BME280;51140;45.340;5.980;2022-08-27T03:29:39;97116.56;;;18.24;100.00
64713;BME280;51140;45.340;5.980;2022-08-27T03:32:05;97115.22;;;18.20;100.00
64713;BME280;51140;45.340;5.980;2022-08-27T03:34:31;97106.94;;;18.14;100.00
64713;BME280;51140;45.340;5.980;2022-08-27T03:36:56;97097.69;;;18.10;100.00
64713;BME280;51140;45.340;5.980;2022-08-27T03:39:24;97091.59;;;18.10;100.00
64713;BME280;51140;45.340;5.980;2022-08-27T03:41:50;97082.88;;;18.09;100.00
64713;BME280;51140;45.340;5.980;2022-08-27T03:44:16;97079.25;;;18.10;100.00
64713;BME280;51140;45.340;5.980;2022-08-27T03:46:41;97079.25;;;18.10;100.00
64713;BME280;51140;45.340;5.980;2022-08-27T03:49:07;97077.59;;;18.09;100.00
64713;BME280;51140;45.340;5.980;2022-08-27T03:51:32;97082.88;;;18.09;100.00
64713;BME280;51140;45.340;5.980;2022-08-27T03:53:58;97089.78;;;18.10;100.00
64713;BME280;51140;45.340;5.980;2022-08-27T03:56:23;97080.53;;;18.06;100.00
64713;BME280;51140;45.340;5.980;2022-08-27T03:58:49;97077.38;;;18.03;100.00
64713;BME280;51140;45.340;5.980;2022-08-27T04:01:15;97081.81;;;18.02;100.00
64713;BME280;51140;45.340;5.980;2022-08-27T04:03:41;97081.94;;;18.01;100.00
64713;BME280;51140;45.340;5.980;2022-08-27T04:06:07;97081.09;;;18.00;100.00
64713;BME280;51140;45.340;5.980;2022-08-27T04:08:33;97085.44;;;18.01;100.00
64713;BME280;51140;45.340;5.980;2022-08-27T04:10:58;97093.34;;;18.01;100.00
64713;BME280;51140;45.340;5.980;2022-08-27T04:13:24;97083.47;;;18.03;100.00
64713;BME280;51140;45.340;5.980;2022-08-27T04:15:51;97091.22;;;18.05;100.00
64713;BME280;51140;45.340;5.980;2022-08-27T04:18:17;97092.06;;;18.05;100.00
64713;BME280;51140;45.340;5.980;2022-08-27T04:20:44;97105.22;;;18.05;100.00
64713;BME280;51140;45.340;5.980;2022-08-27T04:23:09;97099.81;;;18.07;100.00
64713;BME280;51140;45.340;5.980;2022-08-27T04:25:38;97090.69;;;18.01;100.00
64713;BME280;51140;45.340;5.980;2022-08-27T04:28:04;97099.72;;;17.99;100.00
64713;BME280;51140;45.340;5.980;2022-08-27T04:30:29;97098.00;;;18.07;100.00
64713;BME280;51140;45.340;5.980;2022-08-27T04:32:55;97099.34;;;18.11;100.00
64713;BME280;51140;45.340;5.980;2022-08-27T04:35:22;97109.28;;;18.17;100.00
64713;BME280;51140;45.340;5.980;2022-08-27T04:37:47;97105.50;;;18.20;100.00
64713;BME280;51140;45.340;5.980;2022-08-27T04:40:13;97106.88;;;18.24;100.00
64713;BME280;51140;45.340;5.980;2022-08-27T04:42:38;97109.03;;;18.29;100.00
64713;BME280;51140;45.340;5.980;2022-08-27T04:45:04;97114.22;;;18.38;100.00
64713;BME280;51140;45.340;5.980;2022-08-27T04:47:30;97115.59;;;18.42;100.00
64713;BME280;51140;45.340;5.980;2022-08-27T04:49:55;97121.38;;;18.46;100.00
64713;BME280;51140;45.340;5.980;2022-08-27T04:52:21;97117.50;;;18.58;100.00
64713;BME280;51140;45.340;5.980;2022-08-27T04:54:46;97115.28;;;18.63;100.00
64713;BME280;51140;45.340;5.980;2022-08-27T04:57:12;97124.53;;;18.67;100.00
64713;BME280;51140;45.340;5.980;2022-08-27T04:59:37;97133.94;;;18.70;100.00
64713;BME280;51140;45.340;5.980;2022-08-27T05:02:05;97129.34;;;18.72;100.00
64713;BME280;51140;45.340;5.980;2022-08-27T05:04:35;97136.94;;;18.75;100.00
64713;BME280;51140;45.340;5.980;2022-08-27T05:07:02;97129.69;;;18.77;100.00
64713;BME280;51140;45.340;5.980;2022-08-27T05:09:27;97124.25;;;18.78;100.00
64713;BME280;51140;45.340;5.980;2022-08-27T05:11:53;97117.03;;;18.81;100.00
64713;BME280;51140;45.340;5.980;2022-08-27T05:14:19;97115.59;;;18.86;100.00
64713;BME280;51140;45.340;5.980;2022-08-27T05:16:46;97116.78;;;18.92;100.00
64713;BME280;51140;45.340;5.980;2022-08-27T05:19:12;97128.69;;;18.96;100.00
64713;BME280;51140;45.340;5.980;2022-08-27T05:21:46;97128.38;;;18.99;100.00
64713;BME280;51140;45.340;5.980;2022-08-27T05:24:12;97131.00;;;18.99;100.00
64713;BME280;51140;45.340;5.980;2022-08-27T05:26:37;97116.19;;;19.06;100.00
64713;BME280;51140;45.340;5.980;2022-08-27T05:29:03;97117.84;;;19.07;100.00
64713;BME280;51140;45.340;5.980;2022-08-27T05:31:30;97127.72;;;19.05;100.00
64713;BME280;51140;45.340;5.980;2022-08-27T05:33:56;97127.72;;;19.05;100.00
64713;BME280;51140;45.340;5.980;2022-08-27T05:36:27;97135.84;;;19.12;100.00
64713;BME280;51140;45.340;5.980;2022-08-27T05:38:54;97126.97;;;19.21;100.00
64713;BME280;51140;45.340;5.980;2022-08-27T05:41:23;97117.47;;;19.28;100.00
64713;BME280;51140;45.340;5.980;2022-08-27T05:43:53;97127.53;;;19.24;100.00
64713;BME280;51140;45.340;5.980;2022-08-27T05:46:21;97124.66;;;19.18;100.00
64713;BME280;51140;45.340;5.980;2022-08-27T05:48:48;97140.50;;;19.18;100.00
64713;BME280;51140;45.340;5.980;2022-08-27T05:51:34;97137.84;;;19.18;100.00
64713;BME280;51140;45.340;5.980;2022-08-27T05:54:08;97139.34;;;19.20;100.00
64713;BME280;51140;45.340;5.980;2022-08-27T05:56:40;97149.63;;;19.23;100.00
64713;BME280;51140;45.340;5.980;2022-08-27T05:59:06;97149.16;;;19.28;100.00
64713;BME280;51140;45.340;5.980;2022-08-27T06:01:52;97160.91;;;19.33;100.00
64713;BME280;51140;45.340;5.980;2022-08-27T06:04:19;97168.97;;;19.32;100.00
64713;BME280;51140;45.340;5.980;2022-08-27T06:06:46;97177.25;;;19.37;100.00
64713;BME280;51140;45.340;5.980;2022-08-27T06:09:14;97170.66;;;19.41;100.00
64713;BME280;51140;45.340;5.980;2022-08-27T06:11:40;97161.78;;;19.50;100.00
64713;BME280;51140;45.340;5.980;2022-08-27T06:14:07;97171.91;;;19.55;100.00
64713;BME280;51140;45.340;5.980;2022-08-27T06:16:34;97175.06;;;19.58;100.00
64713;BME280;51140;45.340;5.980;2022-08-27T06:19:00;97180.66;;;19.55;100.00
64713;BME280;51140;45.340;5.980;2022-08-27T06:21:25;97197.31;;;19.56;100.00
64713;BME280;51140;45.340;5.980;2022-08-27T06:23:52;97209.88;;;19.54;100.00
64713;BME280;51140;45.340;5.980;2022-08-27T06:26:19;97209.56;;;19.57;100.00
64713;BME280;51140;45.340;5.980;2022-08-27T06:28:45;97226.06;;;19.59;100.00
64713;BME280;51140;45.340;5.980;2022-08-27T06:31:12;97224.41;;;19.58;100.00
64713;BME280;51140;45.340;5.980;2022-08-27T06:33:39;97225.56;;;19.55;100.00
64713;BME280;51140;45.340;5.980;2022-08-27T06:36:07;97241.91;;;19.59;100.00
64713;BME280;51140;45.340;5.980;2022-08-27T06:38:33;97239.03;;;19.70;100.00
64713;BME280;51140;45.340;5.980;2022-08-27T06:40:59;97236.06;;;19.73;100.00
64713;BME280;51140;45.340;5.980;2022-08-27T06:43:25;97227.97;;;19.75;100.00
64713;BME280;51140;45.340;5.980;2022-08-27T06:45:51;97239.69;;;19.72;100.00
64713;BME280;51140;45.340;5.980;2022-08-27T06:48:17;97225.47;;;19.65;100.00
64713;BME280;51140;45.340;5.980;2022-08-27T06:50:43;97247.03;;;19.60;100.00
64713;BME280;51140;45.340;5.980;2022-08-27T06:53:09;97242.00;;;19.67;100.00
64713;BME280;51140;45.340;5.980;2022-08-27T06:55:45;97242.66;;;19.69;100.00
64713;BME280;51140;45.340;5.980;2022-08-27T06:58:12;97237.06;;;19.72;100.00
64713;BME280;51140;45.340;5.980;2022-08-27T07:00:38;97224.50;;;19.74;100.00
64713;BME280;51140;45.340;5.980;2022-08-27T07:03:04;97237.41;;;19.77;100.00
64713;BME280;51140;45.340;5.980;2022-08-27T07:05:35;97243.22;;;19.89;100.00
64713;BME280;51140;45.340;5.980;2022-08-27T07:08:02;97250.97;;;19.82;100.00
64713;BME280;51140;45.340;5.980;2022-08-27T07:10:28;97251.81;;;19.91;100.00
64713;BME280;51140;45.340;5.980;2022-08-27T07:12:53;97241.50;;;20.06;100.00
64713;BME280;51140;45.340;5.980;2022-08-27T07:15:19;97229.28;;;20.13;100.00
64713;BME280;51140;45.340;5.980;2022-08-27T07:17:45;97227.47;;;20.13;100.00
64713;BME280;51140;45.340;5.980;2022-08-27T07:20:11;97228.94;;;20.16;100.00
64713;BME280;51140;45.340;5.980;2022-08-27T07:22:40;97229.97;;;20.23;100.00
64713;BME280;51140;45.340;5.980;2022-08-27T07:25:08;97229.47;;;20.27;100.00
64713;BME280;51140;45.340;5.980;2022-08-27T07:27:35;97223.53;;;20.33;100.00
64713;BME280;51140;45.340;5.980;2022-08-27T07:30:01;97244.66;;;20.25;100.00
64713;BME280;51140;45.340;5.980;2022-08-27T07:32:27;97242.53;;;20.37;100.00
64713;BME280;51140;45.340;5.980;2022-08-27T07:34:53;97242.78;;;20.44;100.00
64713;BME280;51140;45.340;5.980;2022-08-27T07:37:18;97270.22;;;20.51;100.00
64713;BME280;51140;45.340;5.980;2022-08-27T07:39:45;97278.84;;;20.53;100.00
64713;BME280;51140;45.340;5.980;2022-08-27T07:42:11;97308.75;;;20.53;100.00
64713;BME280;51140;45.340;5.980;2022-08-27T07:44:55;97306.47;;;20.58;100.00
64713;BME280;51140;45.340;5.980;2022-08-27T07:47:20;97303.16;;;20.56;100.00
64713;BME280;51140;45.340;5.980;2022-08-27T07:49:45;97283.47;;;20.75;100.00
64713;BME280;51140;45.340;5.980;2022-08-27T07:52:12;97307.31;;;20.75;100.00
64713;BME280;51140;45.340;5.980;2022-08-27T07:54:37;97302.53;;;20.87;100.00
64713;BME280;51140;45.340;5.980;2022-08-27T07:57:02;97320.75;;;20.90;100.00
64713;BME280;51140;45.340;5.980;2022-08-27T07:59:28;97305.69;;;20.99;100.00
64713;BME280;51140;45.340;5.980;2022-08-27T08:01:54;97324.38;;;20.97;100.00
64713;BME280;51140;45.340;5.980;2022-08-27T08:04:20;97322.22;;;21.09;100.00
64713;BME280;51140;45.340;5.980;2022-08-27T08:06:47;97337.47;;;20.99;100.00
64713;BME280;51140;45.340;5.980;2022-08-27T08:09:12;97339.28;;;20.98;100.00
64713;BME280;51140;45.340;5.980;2022-08-27T08:11:38;97353.69;;;21.12;100.00
64713;BME280;51140;45.340;5.980;2022-08-27T08:14:03;97345.91;;;21.10;100.00
64713;BME280;51140;45.340;5.980;2022-08-27T08:16:29;97342.94;;;21.13;100.00
64713;BME280;51140;45.340;5.980;2022-08-27T08:18:54;97348.63;;;21.26;100.00
64713;BME280;51140;45.340;5.980;2022-08-27T08:21:20;97357.53;;;21.34;100.00
64713;BME280;51140;45.340;5.980;2022-08-27T08:23:45;97335.16;;;21.52;100.00
64713;BME280;51140;45.340;5.980;2022-08-27T08:26:12;97353.03;;;21.58;100.00
64713;BME280;51140;45.340;5.980;2022-08-27T08:28:38;97360.34;;;21.56;100.00
64713;BME280;51140;45.340;5.980;2022-08-27T08:31:04;97337.16;;;21.58;100.00
64713;BME280;51140;45.340;5.980;2022-08-27T08:33:31;97357.84;;;21.71;100.00
64713;BME280;51140;45.340;5.980;2022-08-27T08:36:11;97366.28;;;21.75;100.00
64713;BME280;51140;45.340;5.980;2022-08-27T08:38:38;97370.75;;;21.82;100.00
64713;BME280;51140;45.340;5.980;2022-08-27T08:41:05;97381.69;;;21.87;100.00
64713;BME280;51140;45.340;5.980;2022-08-27T08:43:36;97373.03;;;22.02;100.00
64713;BME280;51140;45.340;5.980;2022-08-27T08:46:11;97386.25;;;22.26;100.00
64713;BME280;51140;45.340;5.980;2022-08-27T08:48:41;97390.53;;;22.35;100.00
64713;BME280;51140;45.340;5.980;2022-08-27T08:53:52;97400.31;;;22.35;100.00
64713;BME280;51140;45.340;5.980;2022-08-27T08:56:26;97408.28;;;22.43;100.00
64713;BME280;51140;45.340;5.980;2022-08-27T08:59:13;97423.66;;;22.56;100.00
64713;BME280;51140;45.340;5.980;2022-08-27T09:01:41;97427.75;;;22.66;100.00
64713;BME280;51140;45.340;5.980;2022-08-27T09:04:10;97417.66;;;23.01;100.00
64713;BME280;51140;45.340;5.980;2022-08-27T09:07:03;97423.66;;;23.26;100.00
64713;BME280;51140;45.340;5.980;2022-08-27T09:09:46;97462.56;;;23.41;100.00
64713;BME280;51140;45.340;5.980;2022-08-27T09:12:20;97472.13;;;23.51;100.00
64713;BME280;51140;45.340;5.980;2022-08-27T09:17:17;97474.50;;;23.23;100.00
64713;BME280;51140;45.340;5.980;2022-08-27T09:19:43;97474.63;;;23.52;100.00
64713;BME280;51140;45.340;5.980;2022-08-27T09:24:51;97514.66;;;23.82;100.00
64713;BME280;51140;45.340;5.980;2022-08-27T09:27:18;97500.94;;;23.93;100.00
64713;BME280;51140;45.340;5.980;2022-08-27T09:29:47;97517.50;;;24.03;100.00
64713;BME280;51140;45.340;5.980;2022-08-27T09:32:13;97544.78;;;23.97;100.00
64713;BME280;51140;45.340;5.980;2022-08-27T09:34:41;97499.53;;;24.43;100.00
64713;BME280;51140;45.340;5.980;2022-08-27T09:37:11;97553.13;;;23.94;100.00
64713;BME280;51140;45.340;5.980;2022-08-27T09:45:01;97562.22;;;25.12;100.00
64713;BME280;51140;45.340;5.980;2022-08-27T09:47:44;97578.53;;;25.53;100.00
64713;BME280;51140;45.340;5.980;2022-08-27T09:50:10;97621.22;;;25.68;100.00
64713;BME280;51140;45.340;5.980;2022-08-27T09:52:50;97607.94;;;25.60;100.00
64713;BME280;51140;45.340;5.980;2022-08-27T09:55:43;97591.59;;;25.48;100.00
64713;BME280;51140;45.340;5.980;2022-08-27T09:58:30;97605.25;;;25.24;100.00
64713;BME280;51140;45.340;5.980;2022-08-27T10:01:03;97583.16;;;25.30;100.00
64713;BME280;51140;45.340;5.980;2022-08-27T10:03:29;97572.22;;;25.40;100.00
64713;BME280;51140;45.340;5.980;2022-08-27T10:05:54;97552.69;;;25.54;100.00
64713;BME280;51140;45.340;5.980;2022-08-27T10:08:38;97592.38;;;25.78;100.00
64713;BME280;51140;45.340;5.980;2022-08-27T10:11:10;97610.63;;;25.75;100.00
64713;BME280;51140;45.340;5.980;2022-08-27T10:25:10;97601.16;;;25.43;100.00
64713;BME280;51140;45.340;5.980;2022-08-27T10:30:11;97623.69;;;26.27;100.00
64713;BME280;51140;45.340;5.980;2022-08-27T10:40:37;97585.25;;;26.43;100.00
64713;BME280;51140;45.340;5.980;2022-08-27T10:48:26;97625.78;;;26.32;100.00
64713;BME280;51140;45.340;5.980;2022-08-27T10:51:17;97641.41;;;26.49;100.00
64713;BME280;51140;45.340;5.980;2022-08-27T10:56:30;97623.38;;;26.37;100.00
64713;BME280;51140;45.340;5.980;2022-08-27T11:01:55;97615.47;;;26.29;100.00
64713;BME280;51140;45.340;5.980;2022-08-27T11:04:30;97631.88;;;26.68;100.00
64713;BME280;51140;45.340;5.980;2022-08-27T11:07:01;97645.50;;;26.73;100.00
64713;BME280;51140;45.340;5.980;2022-08-27T11:09:47;97635.63;;;26.74;100.00
64713;BME280;51140;45.340;5.980;2022-08-27T11:12:16;97630.97;;;27.38;100.00
64713;BME280;51140;45.340;5.980;2022-08-27T11:14:53;97677.91;;;27.82;100.00
64713;BME280;51140;45.340;5.980;2022-08-27T11:19:58;97691.53;;;27.87;100.00
64713;BME280;51140;45.340;5.980;2022-08-27T11:22:30;97687.00;;;27.94;100.00
64713;BME280;51140;45.340;5.980;2022-08-27T11:27:31;97707.84;;;28.80;100.00
64713;BME280;51140;45.340;5.980;2022-08-27T11:33:15;97731.19;;;28.92;100.00
64713;BME280;51140;45.340;5.980;2022-08-27T11:41:42;97662.84;;;28.29;100.00
64713;BME280;51140;45.340;5.980;2022-08-27T11:44:13;97676.44;;;28.27;100.00
64713;BME280;51140;45.340;5.980;2022-08-27T11:46:55;97643.63;;;28.05;100.00
64713;BME280;51140;45.340;5.980;2022-08-27T11:52:04;97661.09;;;28.01;100.00
64713;BME280;51140;45.340;5.980;2022-08-27T11:57:30;97648.28;;;27.49;100.00
64713;BME280;51140;45.340;5.980;2022-08-27T11:59:56;97619.63;;;27.36;100.00
64713;BME280;51140;45.340;5.980;2022-08-27T12:02:26;97610.63;;;27.51;100.00
64713;BME280;51140;45.340;5.980;2022-08-27T12:04:53;97642.75;;;27.16;100.00
64713;BME280;51140;45.340;5.980;2022-08-27T12:07:34;97625.34;;;27.27;100.00
64713;BME280;51140;45.340;5.980;2022-08-27T12:10:19;97634.31;;;27.19;100.00
64713;BME280;51140;45.340;5.980;2022-08-27T12:26:37;97599.56;;;27.60;100.00
64713;BME280;51140;45.340;5.980;2022-08-27T12:31:51;97633.69;;;27.99;100.00
64713;BME280;51140;45.340;5.980;2022-08-27T12:34:22;97631.75;;;27.73;100.00
64713;BME280;51140;45.340;5.980;2022-08-27T12:36:50;97631.41;;;27.90;100.00
64713;BME280;51140;45.340;5.980;2022-08-27T12:39:19;97640.06;;;27.92;100.00
64713;BME280;51140;45.340;5.980;2022-08-27T12:41:48;97658.66;;;27.24;100.00
64713;BME280;51140;45.340;5.980;2022-08-27T12:44:28;97627.09;;;27.47;100.00
64713;BME280;51140;45.340;5.980;2022-08-27T12:49:31;97581.09;;;27.65;100.00
64713;BME280;51140;45.340;5.980;2022-08-27T12:52:00;97601.19;;;28.02;100.00
64713;BME280;51140;45.340;5.980;2022-08-27T12:54:45;97610.91;;;28.36;100.00
64713;BME280;51140;45.340;5.980;2022-08-27T12:57:27;97649.06;;;27.36;100.00
64713;BME280;51140;45.340;5.980;2022-08-27T13:00:20;97571.09;;;27.39;100.00
64713;BME280;51140;45.340;5.980;2022-08-27T13:05:40;97624.97;;;28.45;100.00
64713;BME280;51140;45.340;5.980;2022-08-27T13:08:27;97642.84;;;28.31;100.00
64713;BME280;51140;45.340;5.980;2022-08-27T13:10:53;97620.13;;;28.07;100.00
64713;BME280;51140;45.340;5.980;2022-08-27T13:13:21;97613.41;;;28.38;100.00
64713;BME280;51140;45.340;5.980;2022-08-27T13:15:53;97634.84;;;28.64;100.00
64713;BME280;51140;45.340;5.980;2022-08-27T13:18:20;97627.44;;;28.99;100.00
64713;BME280;51140;45.340;5.980;2022-08-27T13:20:47;97648.66;;;29.14;100.00
64713;BME280;51140;45.340;5.980;2022-08-27T13:23:18;97658.38;;;29.09;100.00
64713;BME280;51140;45.340;5.980;2022-08-27T13:26:07;97647.63;;;29.28;100.00
64713;BME280;51140;45.340;5.980;2022-08-27T13:28:34;97673.66;;;28.95;100.00
64713;BME280;51140;45.340;5.980;2022-08-27T13:31:01;97637.53;;;29.24;100.00
64713;BME280;51140;45.340;5.980;2022-08-27T13:33:31;97656.66;;;29.41;100.00
64713;BME280;51140;45.340;5.980;2022-08-27T13:35:58;97697.13;;;29.19;100.00
64713;BME280;51140;45.340;5.980;2022-08-27T13:38:27;97655.69;;;29.28;100.00
64713;BME280;51140;45.340;5.980;2022-08-27T13:40:57;97640.41;;;29.16;100.00
64713;BME280;51140;45.340;5.980;2022-08-27T13:43:43;97640.41;;;29.22;100.00
64713;BME280;51140;45.340;5.980;2022-08-27T13:46:17;97618.63;;;29.70;100.00
64713;BME280;51140;45.340;5.980;2022-08-27T13:48:46;97614.34;;;29.43;100.00
64713;BME280;51140;45.340;5.980;2022-08-27T13:51:13;97627.75;;;29.56;100.00
64713;BME280;51140;45.340;5.980;2022-08-27T13:53:47;97658.28;;;29.55;100.00
64713;BME280;51140;45.340;5.980;2022-08-27T13:56:39;97671.34;;;29.31;100.00
64713;BME280;51140;45.340;5.980;2022-08-27T14:07:21;97610.44;;;29.39;100.00
64713;BME280;51140;45.340;5.980;2022-08-27T14:12:40;97645.97;;;29.14;100.00
64713;BME280;51140;45.340;5.980;2022-08-27T14:15:23;97678.19;;;29.08;100.00
64713;BME280;51140;45.340;5.980;2022-08-27T14:17:51;97672.22;;;28.99;100.00
64713;BME280;51140;45.340;5.980;2022-08-27T14:20:18;97682.75;;;28.87;100.00
64713;BME280;51140;45.340;5.980;2022-08-27T14:22:43;97660.66;;;28.98;100.00
64713;BME280;51140;45.340;5.980;2022-08-27T14:25:10;97629.50;;;28.97;100.00
64713;BME280;51140;45.340;5.980;2022-08-27T14:27:37;97617.53;;;29.00;100.00
64713;BME280;51140;45.340;5.980;2022-08-27T14:30:05;97624.53;;;29.08;100.00
64713;BME280;51140;45.340;5.980;2022-08-27T14:32:31;97613.44;;;28.97;100.00
64713;BME280;51140;45.340;5.980;2022-08-27T14:34:57;97644.34;;;28.60;100.00
64713;BME280;51140;45.340;5.980;2022-08-27T14:37:22;97594.03;;;28.95;100.00
64713;BME280;51140;45.340;5.980;2022-08-27T14:39:48;97649.47;;;28.82;100.00
64713;BME280;51140;45.340;5.980;2022-08-27T14:42:13;97617.28;;;29.28;100.00
64713;BME280;51140;45.340;5.980;2022-08-27T14:44:39;97653.41;;;29.19;100.00